createdAt,value
2018-11-22T12:17:40.728Z,66.74
2018-11-22T12:20:08.172Z,67.21
2018-11-22T12:22:35.612Z,67.67
2018-11-22T12:25:03.059Z,66.66
2018-11-22T12:27:30.522Z,67.19
2018-11-22T12:29:57.962Z,66.99
2018-11-22T12:32:25.397Z,66.92
2018-11-22T12:34:54.769Z,66.87
2018-11-22T12:37:22.338Z,66.77
2018-11-22T12:39:49.769Z,66.63
2018-11-22T12:42:17.193Z,67.04
2018-11-22T12:44:44.640Z,66.73
2018-11-22T12:47:12.132Z,66.95
2018-11-22T12:49:39.578Z,66.91
2018-11-22T12:52:07.011Z,67.30
2018-11-22T12:54:34.462Z,67.18
2018-11-22T12:57:04.108Z,66.89
2018-11-22T12:59:31.767Z,66.92
2018-11-22T13:01:59.279Z,66.33
2018-11-22T13:04:26.726Z,66.47
2018-11-22T13:06:54.172Z,66.58
2018-11-22T13:09:21.633Z,66.66
2018-11-22T13:11:49.093Z,66.65
2018-11-22T13:14:16.521Z,66.43
2018-11-22T13:16:43.975Z,66.72
2018-11-22T13:19:11.397Z,67.23
2018-11-22T13:21:38.856Z,67.24
2018-11-22T13:24:06.297Z,66.54
2018-11-22T13:26:33.741Z,66.19
2018-11-22T13:29:01.178Z,66.73
2018-11-22T13:31:28.629Z,66.57
2018-11-22T13:33:56.079Z,66.52
2018-11-22T13:36:23.537Z,66.75
2018-11-22T13:38:51.025Z,66.82
2018-11-22T13:41:18.469Z,66.52
2018-11-22T13:43:45.893Z,66.42
2018-11-22T13:46:13.343Z,66.17
2018-11-22T13:48:40.798Z,66.46
2018-11-22T13:51:08.253Z,66.66
2018-11-22T13:53:35.707Z,66.40
2018-11-22T13:58:25.494Z,66.24
2018-11-22T14:00:52.925Z,66.57
2018-11-22T14:03:20.357Z,66.04
2018-11-22T14:05:47.802Z,66.29
2018-11-22T14:08:15.234Z,66.03
2018-11-22T14:10:42.687Z,66.29
2018-11-22T14:13:10.137Z,66.34
2018-11-22T14:15:37.581Z,66.21
2018-11-22T14:18:05.054Z,66.18
2018-11-22T14:20:32.526Z,66.57
2018-11-22T14:22:59.981Z,66.40
2018-11-22T14:25:27.410Z,66.18
2018-11-22T14:27:55.045Z,65.94
2018-11-22T14:30:22.505Z,65.92
2018-11-22T14:32:49.974Z,66.22
2018-11-22T14:35:17.401Z,66.87
2018-11-22T14:37:44.834Z,66.49
2018-11-22T14:40:12.274Z,66.28
2018-11-22T14:42:39.698Z,66.33
2018-11-22T14:45:07.140Z,65.82
2018-11-22T14:47:34.633Z,65.64
2018-11-22T14:50:02.082Z,66.08
2018-11-22T14:52:29.531Z,66.13
2018-11-22T14:54:56.984Z,65.92
2018-11-22T14:57:24.445Z,65.67
2018-11-22T14:59:51.869Z,65.88
2018-11-22T15:02:20.606Z,66.06
2018-11-22T15:04:48.097Z,65.26
2018-11-22T15:07:15.522Z,65.67
2018-11-22T15:09:42.964Z,65.66
2018-11-22T15:12:10.422Z,65.51
2018-11-22T15:14:37.877Z,65.43
2018-11-22T15:17:05.303Z,65.25
2018-11-22T15:19:32.945Z,65.57
2018-11-22T15:22:00.390Z,65.49
2018-11-22T15:24:27.844Z,65.57
2018-11-22T15:26:55.285Z,65.41
2018-11-22T15:29:22.741Z,65.43
2018-11-22T15:31:50.166Z,65.75
2018-11-22T15:34:17.610Z,65.26
2018-11-22T15:36:45.037Z,65.18
2018-11-22T15:39:12.481Z,65.44
2018-11-22T15:41:39.925Z,65.17
2018-11-22T15:44:07.379Z,64.96
2018-11-22T15:46:34.808Z,65.10
2018-11-22T15:49:02.250Z,64.87
2018-11-22T15:51:29.685Z,64.88
2018-11-22T15:53:57.142Z,64.95
2018-11-22T15:56:24.598Z,64.82
2018-11-22T15:58:52.048Z,65.37
2018-11-22T16:01:19.495Z,65.10
2018-11-22T16:03:46.922Z,64.89
2018-11-22T16:06:14.364Z,64.93
2018-11-22T16:08:41.789Z,64.80
2018-11-22T16:11:14.811Z,64.78
2018-11-22T16:13:36.716Z,64.76
2018-11-22T16:16:04.180Z,64.85
2018-11-22T16:18:31.619Z,64.86
2018-11-22T16:20:59.046Z,64.80
2018-11-22T16:23:26.497Z,64.86
2018-11-22T16:25:53.922Z,64.89
2018-11-22T16:28:21.385Z,65.17
2018-11-22T16:30:48.814Z,65.12
2018-11-22T16:33:16.271Z,65.03
2018-11-22T16:35:43.700Z,65.17
2018-11-22T16:38:11.152Z,65.36
2018-11-22T16:40:38.609Z,65.26
2018-11-22T16:43:07.263Z,65.40
2018-11-22T16:45:34.714Z,65.25
2018-11-22T16:48:02.143Z,65.48
2018-11-22T16:50:29.581Z,65.24
2018-11-22T16:52:57.048Z,65.43
2018-11-22T16:55:25.011Z,65.38
2018-11-22T16:57:52.441Z,65.12
2018-11-22T17:00:19.899Z,65.10
2018-11-22T17:02:47.321Z,65.05
2018-11-22T17:05:14.780Z,64.84
2018-11-22T17:07:42.225Z,64.85
2018-11-22T17:10:09.657Z,65.02
2018-11-22T17:12:37.101Z,65.11
2018-11-22T17:15:04.525Z,64.95
2018-11-22T17:17:31.972Z,65.08
2018-11-22T17:19:59.429Z,65.00
2018-11-22T17:22:26.880Z,64.82
2018-11-22T17:24:54.328Z,64.84
2018-11-22T17:27:21.777Z,64.89
2018-11-22T17:29:49.921Z,64.90
2018-11-22T17:32:17.378Z,66.32
2018-11-22T17:34:44.802Z,65.74
2018-11-22T17:37:12.969Z,66.13
2018-11-22T17:39:40.495Z,66.96
2018-11-22T17:42:07.926Z,66.75
2018-11-22T17:44:35.369Z,67.31
2018-11-22T17:47:02.821Z,66.66
2018-11-22T17:49:30.245Z,66.30
2018-11-22T17:51:57.706Z,66.11
2018-11-22T17:54:25.125Z,66.03
2018-11-22T17:56:52.548Z,66.51
2018-11-22T17:59:20.208Z,66.37
2018-11-22T18:01:47.648Z,66.00
2018-11-22T18:04:15.113Z,66.74
2018-11-22T18:06:42.539Z,66.27
2018-11-22T18:09:10.005Z,66.20
2018-11-22T18:11:37.454Z,66.56
2018-11-22T18:14:04.885Z,66.33
2018-11-22T18:16:32.358Z,66.19
2018-11-22T18:18:59.777Z,66.02
2018-11-22T18:21:27.225Z,66.24
2018-11-22T18:23:54.652Z,66.39
2018-11-22T18:26:22.106Z,65.66
2018-11-22T18:28:49.533Z,66.50
2018-11-22T18:31:16.973Z,66.15
2018-11-22T18:33:44.422Z,66.49
2018-11-22T18:36:11.877Z,66.38
2018-11-22T18:38:39.313Z,66.27
2018-11-22T18:41:06.769Z,66.66
2018-11-22T18:43:35.393Z,67.11
2018-11-22T18:46:01.678Z,67.41
2018-11-22T18:48:29.105Z,67.46
2018-11-22T18:50:56.539Z,67.82
2018-11-22T18:53:23.983Z,67.91
2018-11-22T18:55:51.410Z,68.17
2018-11-22T18:58:18.893Z,68.08
2018-11-22T19:00:46.334Z,68.28
2018-11-22T19:03:13.792Z,68.23
2018-11-22T19:05:41.245Z,68.30
2018-11-22T19:08:08.689Z,68.59
2018-11-22T19:10:36.139Z,68.49
2018-11-22T19:13:03.564Z,68.33
2018-11-22T19:15:31.037Z,68.04
2018-11-22T19:17:58.492Z,68.20
2018-11-22T19:20:25.998Z,68.18
2018-11-22T19:22:53.402Z,68.02
2018-11-22T19:25:21.521Z,67.98
2018-11-22T19:27:48.971Z,68.06
2018-11-22T19:30:16.419Z,68.01
2018-11-22T19:32:43.961Z,67.95
2018-11-22T19:35:11.936Z,68.39
2018-11-22T19:37:39.400Z,68.28
2018-11-22T19:40:07.710Z,68.66
2018-11-22T19:42:39.351Z,68.42
2018-11-22T19:45:06.792Z,68.14
2018-11-22T19:47:34.225Z,68.66
2018-11-22T19:50:01.911Z,69.69
2018-11-22T19:52:29.344Z,70.35
2018-11-22T19:54:56.805Z,69.63
2018-11-22T19:57:24.241Z,69.51
2018-11-22T19:59:51.683Z,69.47
2018-11-22T20:02:20.338Z,69.28
2018-11-22T20:04:47.805Z,69.25
2018-11-22T20:07:15.232Z,69.37
2018-11-22T20:09:42.678Z,69.68
2018-11-22T20:12:10.119Z,70.24
2018-11-22T20:14:37.569Z,69.93
2018-11-22T20:17:06.522Z,69.98
2018-11-22T20:19:34.017Z,69.78
2018-11-22T20:22:04.214Z,70.56
2018-11-22T20:24:32.494Z,69.64
2018-11-22T20:27:00.041Z,69.59
2018-11-22T20:29:28.333Z,69.51
2018-11-22T20:31:55.785Z,69.50
2018-11-22T20:34:23.214Z,69.93
2018-11-22T20:36:50.664Z,69.70
2018-11-22T20:39:18.128Z,69.61
2018-11-22T20:41:45.582Z,69.53
2018-11-22T20:44:13.041Z,69.28
2018-11-22T20:46:40.511Z,69.33
2018-11-22T20:49:07.941Z,69.91
2018-11-22T20:51:35.410Z,69.71
2018-11-22T20:54:02.857Z,69.52
2018-11-22T20:56:31.453Z,69.54
2018-11-22T20:59:00.001Z,69.96
2018-11-22T21:01:27.442Z,69.89
2018-11-22T21:03:54.910Z,69.70
2018-11-22T21:06:22.345Z,69.55
2018-11-22T21:08:49.799Z,69.33
2018-11-22T21:11:17.229Z,70.40
2018-11-22T21:13:45.395Z,70.55
2018-11-22T21:16:12.919Z,70.28
2018-11-22T21:18:40.342Z,70.42
2018-11-22T21:21:07.789Z,70.57
2018-11-22T21:23:35.221Z,70.17
2018-11-22T21:26:02.678Z,70.58
2018-11-22T21:28:30.139Z,70.75
2018-11-22T21:30:57.593Z,71.15
2018-11-22T21:33:25.027Z,70.64
2018-11-22T21:35:52.493Z,70.97
2018-11-22T21:38:19.929Z,70.57
2018-11-22T21:40:47.354Z,71.32
2018-11-22T21:43:14.807Z,70.67
2018-11-22T21:45:42.252Z,70.17
2018-11-22T21:48:09.686Z,70.04
2018-11-22T21:50:37.147Z,70.44
2018-11-22T21:53:05.441Z,70.35
2018-11-22T21:55:33.813Z,70.18
2018-11-22T21:58:01.274Z,70.15
2018-11-22T22:00:29.561Z,69.87
2018-11-22T22:02:57.055Z,69.82
2018-11-22T22:05:24.521Z,69.70
2018-11-22T22:07:51.973Z,69.80
2018-11-22T22:10:19.446Z,70.26
2018-11-22T22:12:47.169Z,70.10
2018-11-22T22:15:14.730Z,69.93
2018-11-22T22:17:42.177Z,70.02
2018-11-22T22:20:09.604Z,70.57
2018-11-22T22:22:37.064Z,70.99
2018-11-22T22:25:04.495Z,70.47
2018-11-22T22:27:31.927Z,70.55
2018-11-22T22:30:01.826Z,70.40
2018-11-22T22:32:29.279Z,70.14
2018-11-22T22:34:56.702Z,70.33
2018-11-22T22:37:24.197Z,70.33
2018-11-22T22:39:51.665Z,69.94
2018-11-22T22:42:19.097Z,70.11
2018-11-22T22:44:46.545Z,70.03
2018-11-22T22:47:14.018Z,70.13
2018-11-22T22:49:41.493Z,69.85
2018-11-22T22:52:08.923Z,70.00
2018-11-22T22:54:36.398Z,70.13
2018-11-22T22:57:03.850Z,70.26
2018-11-22T22:59:31.282Z,69.78
2018-11-22T23:01:58.744Z,70.29
2018-11-22T23:04:27.265Z,70.71
2018-11-22T23:06:54.793Z,70.34
2018-11-22T23:09:22.335Z,70.05
2018-11-22T23:11:50.824Z,70.17
2018-11-22T23:14:18.259Z,70.55
2018-11-22T23:16:45.753Z,70.09
2018-11-22T23:19:13.198Z,70.07
2018-11-22T23:21:40.665Z,69.74
2018-11-22T23:24:08.134Z,69.69
2018-11-22T23:26:35.585Z,69.74
2018-11-22T23:29:03.922Z,69.30
2018-11-22T23:31:31.346Z,69.80
2018-11-22T23:33:58.799Z,70.40
2018-11-22T23:36:26.250Z,70.10
2018-11-22T23:38:53.700Z,69.55
2018-11-22T23:41:21.134Z,70.35
2018-11-22T23:43:48.577Z,70.31
2018-11-22T23:46:16.031Z,70.56
2018-11-22T23:48:44.382Z,71.13
2018-11-22T23:51:11.905Z,71.54
2018-11-22T23:53:39.333Z,72.00
2018-11-22T23:56:06.916Z,72.31
2018-11-22T23:58:34.345Z,71.25
